sensor_id;sensor_type;location;lat;lon;timestamp;P1;durP1;ratioP1;P2;durP2;ratioP2
49998;SDS011;68071;45.062;7.356;2023-05-20T00:01:09;1.98;;;1.00;;
49998;SDS011;68071;45.062;7.356;2023-05-20T00:04:13;1.83;;;0.82;;
49998;SDS011;68071;45.062;7.356;2023-05-20T00:07:17;1.40;;;0.80;;
49998;SDS011;68071;45.062;7.356;2023-05-20T00:10:21;1.20;;;1.00;;
49998;SDS011;68071;45.062;7.356;2023-05-20T00:13:25;1.85;;;1.40;;
49998;SDS011;68071;45.062;7.356;2023-05-20T00:16:29;1.95;;;1.20;;
49998;SDS011;68071;45.062;7.356;2023-05-20T00:19:33;2.95;;;1.20;;
49998;SDS011;68071;45.062;7.356;2023-05-20T00:22:38;1.42;;;1.27;;
49998;SDS011;68071;45.062;7.356;2023-05-20T00:25:42;2.35;;;0.90;;
49998;SDS011;68071;45.062;7.356;2023-05-20T00:28:45;1.38;;;0.80;;
49998;SDS011;68071;45.062;7.356;2023-05-20T00:31:49;2.33;;;0.80;;
49998;SDS011;68071;45.062;7.356;2023-05-20T00:34:57;2.17;;;1.20;;
49998;SDS011;68071;45.062;7.356;2023-05-20T00:38:02;2.33;;;1.25;;
49998;SDS011;68071;45.062;7.356;2023-05-20T00:41:06;1.50;;;0.80;;
49998;SDS011;68071;45.062;7.356;2023-05-20T00:44:10;2.60;;;1.02;;
49998;SDS011;68071;45.062;7.356;2023-05-20T00:47:15;1.58;;;0.73;;
49998;SDS011;68071;45.062;7.356;2023-05-20T00:50:20;1.10;;;0.70;;
49998;SDS011;68071;45.062;7.356;2023-05-20T00:53:25;1.50;;;1.00;;
49998;SDS011;68071;45.062;7.356;2023-05-20T00:56:29;2.95;;;1.10;;
49998;SDS011;68071;45.062;7.356;2023-05-20T00:59:34;1.13;;;0.88;;
49998;SDS011;68071;45.062;7.356;2023-05-20T01:02:38;1.85;;;0.85;;
49998;SDS011;68071;45.062;7.356;2023-05-20T01:05:42;1.23;;;0.63;;
49998;SDS011;68071;45.062;7.356;2023-05-20T01:08:46;1.50;;;0.68;;
49998;SDS011;68071;45.062;7.356;2023-05-20T01:11:55;0.90;;;0.60;;
49998;SDS011;68071;45.062;7.356;2023-05-20T01:15:09;2.00;;;0.90;;
49998;SDS011;68071;45.062;7.356;2023-05-20T01:18:14;1.83;;;0.60;;
49998;SDS011;68071;45.062;7.356;2023-05-20T01:21:23;2.30;;;0.77;;
49998;SDS011;68071;45.062;7.356;2023-05-20T01:24:30;1.30;;;0.63;;
49998;SDS011;68071;45.062;7.356;2023-05-20T01:27:36;1.20;;;0.73;;
49998;SDS011;68071;45.062;7.356;2023-05-20T01:30:41;1.65;;;0.80;;
49998;SDS011;68071;45.062;7.356;2023-05-20T01:33:51;1.58;;;0.90;;
49998;SDS011;68071;45.062;7.356;2023-05-20T01:36:59;2.28;;;1.05;;
49998;SDS011;68071;45.062;7.356;2023-05-20T01:40:04;1.07;;;0.60;;
49998;SDS011;68071;45.062;7.356;2023-05-20T01:43:11;1.10;;;0.77;;
49998;SDS011;68071;45.062;7.356;2023-05-20T01:46:17;2.35;;;1.50;;
49998;SDS011;68071;45.062;7.356;2023-05-20T01:49:21;2.08;;;1.35;;
49998;SDS011;68071;45.062;7.356;2023-05-20T01:52:25;1.50;;;0.90;;
49998;SDS011;68071;45.062;7.356;2023-05-20T01:55:29;1.38;;;0.88;;
49998;SDS011;68071;45.062;7.356;2023-05-20T01:58:32;1.15;;;0.70;;
49998;SDS011;68071;45.062;7.356;2023-05-20T02:01:36;0.60;;;0.38;;
49998;SDS011;68071;45.062;7.356;2023-05-20T02:04:41;0.80;;;0.40;;
49998;SDS011;68071;45.062;7.356;2023-05-20T02:07:51;1.95;;;1.20;;
49998;SDS011;68071;45.062;7.356;2023-05-20T02:10:57;1.75;;;0.98;;
49998;SDS011;68071;45.062;7.356;2023-05-20T02:14:01;0.85;;;0.70;;
49998;SDS011;68071;45.062;7.356;2023-05-20T02:17:06;1.80;;;0.80;;
49998;SDS011;68071;45.062;7.356;2023-05-20T02:20:10;1.08;;;0.50;;
49998;SDS011;68071;45.062;7.356;2023-05-20T02:23:14;2.75;;;0.60;;
49998;SDS011;68071;45.062;7.356;2023-05-20T02:26:18;1.23;;;0.77;;
49998;SDS011;68071;45.062;7.356;2023-05-20T02:29:23;1.67;;;0.50;;
49998;SDS011;68071;45.062;7.356;2023-05-20T02:32:28;1.13;;;0.60;;
49998;SDS011;68071;45.062;7.356;2023-05-20T02:35:32;0.93;;;0.50;;
49998;SDS011;68071;45.062;7.356;2023-05-20T02:38:35;2.65;;;0.70;;
49998;SDS011;68071;45.062;7.356;2023-05-20T02:41:39;2.65;;;0.80;;
49998;SDS011;68071;45.062;7.356;2023-05-20T02:44:44;1.65;;;0.93;;
49998;SDS011;68071;45.062;7.356;2023-05-20T02:47:49;1.40;;;0.77;;
49998;SDS011;68071;45.062;7.356;2023-05-20T02:50:53;1.20;;;0.70;;
49998;SDS011;68071;45.062;7.356;2023-05-20T02:53:56;1.60;;;1.00;;
49998;SDS011;68071;45.062;7.356;2023-05-20T02:57:00;2.78;;;1.98;;
49998;SDS011;68071;45.062;7.356;2023-05-20T03:00:06;2.33;;;1.50;;
49998;SDS011;68071;45.062;7.356;2023-05-20T03:03:14;1.17;;;0.70;;
49998;SDS011;68071;45.062;7.356;2023-05-20T03:06:19;2.10;;;0.77;;
49998;SDS011;68071;45.062;7.356;2023-05-20T03:09:23;1.70;;;1.10;;
49998;SDS011;68071;45.062;7.356;2023-05-20T03:12:28;3.00;;;1.93;;
49998;SDS011;68071;45.062;7.356;2023-05-20T03:15:33;2.65;;;1.73;;
49998;SDS011;68071;45.062;7.356;2023-05-20T03:18:38;3.05;;;2.20;;
49998;SDS011;68071;45.062;7.356;2023-05-20T03:21:42;2.55;;;1.70;;
49998;SDS011;68071;45.062;7.356;2023-05-20T03:24:46;3.90;;;3.60;;
49998;SDS011;68071;45.062;7.356;2023-05-20T03:27:51;17.05;;;15.25;;
49998;SDS011;68071;45.062;7.356;2023-05-20T03:30:55;3.58;;;3.08;;
49998;SDS011;68071;45.062;7.356;2023-05-20T03:33:59;2.17;;;0.95;;
49998;SDS011;68071;45.062;7.356;2023-05-20T03:37:03;1.10;;;0.50;;
49998;SDS011;68071;45.062;7.356;2023-05-20T03:40:08;1.70;;;0.70;;
49998;SDS011;68071;45.062;7.356;2023-05-20T03:46:17;1.38;;;0.60;;
49998;SDS011;68071;45.062;7.356;2023-05-20T03:49:21;1.38;;;0.32;;
49998;SDS011;68071;45.062;7.356;2023-05-20T03:52:25;0.70;;;0.30;;
49998;SDS011;68071;45.062;7.356;2023-05-20T03:55:30;0.90;;;0.50;;
49998;SDS011;68071;45.062;7.356;2023-05-20T03:58:35;1.13;;;0.53;;
49998;SDS011;68071;45.062;7.356;2023-05-20T04:01:42;1.20;;;0.60;;
49998;SDS011;68071;45.062;7.356;2023-05-20T04:04:47;1.30;;;0.82;;
49998;SDS011;68071;45.062;7.356;2023-05-20T04:07:51;1.80;;;1.10;;
49998;SDS011;68071;45.062;7.356;2023-05-20T04:10:57;1.60;;;1.23;;
49998;SDS011;68071;45.062;7.356;2023-05-20T04:14:01;2.97;;;1.63;;
49998;SDS011;68071;45.062;7.356;2023-05-20T04:17:06;2.17;;;1.03;;
49998;SDS011;68071;45.062;7.356;2023-05-20T04:20:09;1.70;;;1.30;;
49998;SDS011;68071;45.062;7.356;2023-05-20T04:23:14;4.65;;;3.05;;
49998;SDS011;68071;45.062;7.356;2023-05-20T04:26:19;1.58;;;1.17;;
49998;SDS011;68071;45.062;7.356;2023-05-20T04:29:24;3.95;;;3.00;;
49998;SDS011;68071;45.062;7.356;2023-05-20T04:32:28;5.07;;;2.00;;
49998;SDS011;68071;45.062;7.356;2023-05-20T04:35:33;2.00;;;1.17;;
49998;SDS011;68071;45.062;7.356;2023-05-20T04:38:40;1.15;;;0.70;;
49998;SDS011;68071;45.062;7.356;2023-05-20T04:41:46;1.70;;;1.10;;
49998;SDS011;68071;45.062;7.356;2023-05-20T04:44:51;1.60;;;0.70;;
49998;SDS011;68071;45.062;7.356;2023-05-20T04:47:56;0.98;;;0.50;;
49998;SDS011;68071;45.062;7.356;2023-05-20T04:51:01;2.45;;;0.80;;
49998;SDS011;68071;45.062;7.356;2023-05-20T04:54:05;1.50;;;0.60;;
49998;SDS011;68071;45.062;7.356;2023-05-20T04:57:09;1.85;;;0.80;;
49998;SDS011;68071;45.062;7.356;2023-05-20T05:00:14;1.00;;;0.60;;
49998;SDS011;68071;45.062;7.356;2023-05-20T05:03:18;2.17;;;1.30;;
49998;SDS011;68071;45.062;7.356;2023-05-20T05:06:22;1.80;;;1.05;;
49998;SDS011;68071;45.062;7.356;2023-05-20T05:09:26;1.75;;;0.80;;
49998;SDS011;68071;45.062;7.356;2023-05-20T05:12:30;1.00;;;0.68;;
49998;SDS011;68071;45.062;7.356;2023-05-20T05:15:35;1.60;;;0.70;;
49998;SDS011;68071;45.062;7.356;2023-05-20T05:18:40;1.23;;;0.63;;
49998;SDS011;68071;45.062;7.356;2023-05-20T05:21:44;2.53;;;0.82;;
49998;SDS011;68071;45.062;7.356;2023-05-20T05:24:48;1.95;;;0.88;;
49998;SDS011;68071;45.062;7.356;2023-05-20T05:27:52;1.35;;;1.08;;
49998;SDS011;68071;45.062;7.356;2023-05-20T05:30:59;2.50;;;1.50;;
49998;SDS011;68071;45.062;7.356;2023-05-20T05:34:04;1.80;;;0.70;;
49998;SDS011;68071;45.062;7.356;2023-05-20T05:37:08;1.67;;;0.80;;
49998;SDS011;68071;45.062;7.356;2023-05-20T05:40:13;1.85;;;1.05;;
49998;SDS011;68071;45.062;7.356;2023-05-20T05:43:17;2.58;;;1.17;;
49998;SDS011;68071;45.062;7.356;2023-05-20T05:46:23;2.33;;;1.02;;
49998;SDS011;68071;45.062;7.356;2023-05-20T05:49:28;1.63;;;1.10;;
49998;SDS011;68071;45.062;7.356;2023-05-20T05:52:32;2.35;;;1.88;;
49998;SDS011;68071;45.062;7.356;2023-05-20T05:55:39;1.58;;;1.15;;
49998;SDS011;68071;45.062;7.356;2023-05-20T05:58:43;1.83;;;1.20;;
49998;SDS011;68071;45.062;7.356;2023-05-20T06:01:48;3.13;;;1.70;;
49998;SDS011;68071;45.062;7.356;2023-05-20T06:04:52;2.05;;;1.00;;
49998;SDS011;68071;45.062;7.356;2023-05-20T06:08:06;1.92;;;0.90;;
49998;SDS011;68071;45.062;7.356;2023-05-20T06:11:13;1.85;;;1.08;;
49998;SDS011;68071;45.062;7.356;2023-05-20T06:14:18;1.20;;;0.93;;
49998;SDS011;68071;45.062;7.356;2023-05-20T06:17:23;1.30;;;1.00;;
49998;SDS011;68071;45.062;7.356;2023-05-20T06:20:26;2.67;;;1.40;;
49998;SDS011;68071;45.062;7.356;2023-05-20T06:23:31;3.58;;;1.35;;
49998;SDS011;68071;45.062;7.356;2023-05-20T06:26:38;2.47;;;1.50;;
49998;SDS011;68071;45.062;7.356;2023-05-20T06:29:42;1.33;;;1.10;;
49998;SDS011;68071;45.062;7.356;2023-05-20T06:32:46;2.72;;;2.22;;
49998;SDS011;68071;45.062;7.356;2023-05-20T06:35:51;3.28;;;2.00;;
49998;SDS011;68071;45.062;7.356;2023-05-20T06:38:58;3.45;;;1.60;;
49998;SDS011;68071;45.062;7.356;2023-05-20T06:42:03;4.28;;;2.38;;
49998;SDS011;68071;45.062;7.356;2023-05-20T06:45:12;2.13;;;1.60;;
49998;SDS011;68071;45.062;7.356;2023-05-20T06:48:25;1.40;;;1.00;;
49998;SDS011;68071;45.062;7.356;2023-05-20T06:51:30;2.67;;;1.30;;
49998;SDS011;68071;45.062;7.356;2023-05-20T06:54:34;2.47;;;1.05;;
49998;SDS011;68071;45.062;7.356;2023-05-20T06:57:43;2.13;;;1.20;;
49998;SDS011;68071;45.062;7.356;2023-05-20T07:00:49;1.67;;;1.15;;
49998;SDS011;68071;45.062;7.356;2023-05-20T07:03:53;1.90;;;1.33;;
49998;SDS011;68071;45.062;7.356;2023-05-20T07:06:57;2.08;;;1.08;;
49998;SDS011;68071;45.062;7.356;2023-05-20T07:10:02;2.05;;;1.30;;
49998;SDS011;68071;45.062;7.356;2023-05-20T07:13:09;2.25;;;1.70;;
49998;SDS011;68071;45.062;7.356;2023-05-20T07:16:13;3.13;;;1.77;;
49998;SDS011;68071;45.062;7.356;2023-05-20T07:19:21;3.15;;;1.85;;
49998;SDS011;68071;45.062;7.356;2023-05-20T07:22:26;5.15;;;2.40;;
49998;SDS011;68071;45.062;7.356;2023-05-20T07:25:51;3.35;;;2.03;;
49998;SDS011;68071;45.062;7.356;2023-05-20T07:28:56;2.13;;;1.80;;
49998;SDS011;68071;45.062;7.356;2023-05-20T07:32:01;2.35;;;1.10;;
49998;SDS011;68071;45.062;7.356;2023-05-20T07:35:06;1.80;;;1.08;;
49998;SDS011;68071;45.062;7.356;2023-05-20T07:38:11;2.13;;;1.23;;
49998;SDS011;68071;45.062;7.356;2023-05-20T07:41:16;3.60;;;3.00;;
49998;SDS011;68071;45.062;7.356;2023-05-20T07:44:20;7.68;;;6.78;;
49998;SDS011;68071;45.062;7.356;2023-05-20T07:47:30;5.38;;;4.10;;
49998;SDS011;68071;45.062;7.356;2023-05-20T07:50:36;1.63;;;0.80;;
49998;SDS011;68071;45.062;7.356;2023-05-20T07:53:41;2.22;;;1.17;;
49998;SDS011;68071;45.062;7.356;2023-05-20T07:56:45;2.47;;;1.88;;
49998;SDS011;68071;45.062;7.356;2023-05-20T07:59:50;3.78;;;3.08;;
49998;SDS011;68071;45.062;7.356;2023-05-20T08:02:55;4.28;;;3.40;;
49998;SDS011;68071;45.062;7.356;2023-05-20T08:06:07;5.47;;;4.57;;
49998;SDS011;68071;45.062;7.356;2023-05-20T08:09:11;2.92;;;2.50;;
49998;SDS011;68071;45.062;7.356;2023-05-20T08:12:21;4.38;;;3.22;;
49998;SDS011;68071;45.062;7.356;2023-05-20T08:15:27;3.78;;;2.90;;
49998;SDS011;68071;45.062;7.356;2023-05-20T08:21:41;3.00;;;2.67;;
49998;SDS011;68071;45.062;7.356;2023-05-20T08:24:45;3.42;;;3.13;;
49998;SDS011;68071;45.062;7.356;2023-05-20T08:27:50;3.53;;;3.20;;
49998;SDS011;68071;45.062;7.356;2023-05-20T08:30:55;5.13;;;4.63;;
49998;SDS011;68071;45.062;7.356;2023-05-20T08:34:00;3.70;;;3.38;;
49998;SDS011;68071;45.062;7.356;2023-05-20T08:37:04;5.18;;;4.68;;
49998;SDS011;68071;45.062;7.356;2023-05-20T08:40:09;4.40;;;4.00;;
49998;SDS011;68071;45.062;7.356;2023-05-20T08:43:14;4.80;;;4.30;;
49998;SDS011;68071;45.062;7.356;2023-05-20T08:46:18;3.33;;;3.03;;
49998;SDS011;68071;45.062;7.356;2023-05-20T08:49:25;3.72;;;2.88;;
49998;SDS011;68071;45.062;7.356;2023-05-20T08:52:29;2.60;;;2.13;;
49998;SDS011;68071;45.062;7.356;2023-05-20T08:55:41;2.22;;;1.80;;
49998;SDS011;68071;45.062;7.356;2023-05-20T08:58:46;1.90;;;1.30;;
49998;SDS011;68071;45.062;7.356;2023-05-20T09:01:49;2.38;;;2.15;;
49998;SDS011;68071;45.062;7.356;2023-05-20T09:04:54;4.15;;;3.08;;
49998;SDS011;68071;45.062;7.356;2023-05-20T09:08:07;3.10;;;2.30;;
49998;SDS011;68071;45.062;7.356;2023-05-20T09:11:13;3.85;;;2.65;;
49998;SDS011;68071;45.062;7.356;2023-05-20T09:14:17;3.90;;;3.33;;
49998;SDS011;68071;45.062;7.356;2023-05-20T09:17:24;2.40;;;1.90;;
49998;SDS011;68071;45.062;7.356;2023-05-20T09:20:29;3.92;;;3.47;;
49998;SDS011;68071;45.062;7.356;2023-05-20T09:26:41;3.35;;;2.45;;
49998;SDS011;68071;45.062;7.356;2023-05-20T09:29:48;4.53;;;2.05;;
49998;SDS011;68071;45.062;7.356;2023-05-20T09:32:53;2.45;;;1.70;;
49998;SDS011;68071;45.062;7.356;2023-05-20T09:36:01;2.85;;;2.55;;
49998;SDS011;68071;45.062;7.356;2023-05-20T09:39:07;2.80;;;1.75;;
49998;SDS011;68071;45.062;7.356;2023-05-20T09:42:17;1.95;;;1.50;;
49998;SDS011;68071;45.062;7.356;2023-05-20T09:45:26;2.78;;;1.55;;
49998;SDS011;68071;45.062;7.356;2023-05-20T09:48:30;2.50;;;2.03;;
49998;SDS011;68071;45.062;7.356;2023-05-20T09:51:35;2.92;;;2.35;;
49998;SDS011;68071;45.062;7.356;2023-05-20T09:54:41;2.97;;;2.67;;
49998;SDS011;68071;45.062;7.356;2023-05-20T09:57:46;3.33;;;2.85;;
49998;SDS011;68071;45.062;7.356;2023-05-20T10:00:50;2.90;;;2.42;;
49998;SDS011;68071;45.062;7.356;2023-05-20T10:03:54;2.83;;;2.40;;
49998;SDS011;68071;45.062;7.356;2023-05-20T10:07:03;2.13;;;1.58;;
49998;SDS011;68071;45.062;7.356;2023-05-20T10:10:40;3.08;;;2.50;;
49998;SDS011;68071;45.062;7.356;2023-05-20T10:17:18;5.35;;;2.70;;
49998;SDS011;68071;45.062;7.356;2023-05-20T10:20:28;2.50;;;2.30;;
49998;SDS011;68071;45.062;7.356;2023-05-20T10:23:32;2.97;;;2.22;;
49998;SDS011;68071;45.062;7.356;2023-05-20T10:26:39;2.83;;;2.10;;
49998;SDS011;68071;45.062;7.356;2023-05-20T10:30:18;2.42;;;2.10;;
49998;SDS011;68071;45.062;7.356;2023-05-20T10:33:21;3.65;;;2.88;;
49998;SDS011;68071;45.062;7.356;2023-05-20T10:36:25;3.00;;;2.22;;
49998;SDS011;68071;45.062;7.356;2023-05-20T10:39:31;4.32;;;3.10;;
49998;SDS011;68071;45.062;7.356;2023-05-20T10:42:37;2.72;;;2.53;;
49998;SDS011;68071;45.062;7.356;2023-05-20T10:45:52;2.90;;;2.20;;
49998;SDS011;68071;45.062;7.356;2023-05-20T10:48:57;2.40;;;1.92;;
49998;SDS011;68071;45.062;7.356;2023-05-20T10:52:02;2.08;;;1.83;;
49998;SDS011;68071;45.062;7.356;2023-05-20T10:55:06;2.28;;;1.77;;
49998;SDS011;68071;45.062;7.356;2023-05-20T10:58:21;2.30;;;2.00;;
49998;SDS011;68071;45.062;7.356;2023-05-20T11:01:26;1.40;;;1.00;;
49998;SDS011;68071;45.062;7.356;2023-05-20T11:04:29;1.70;;;1.55;;
49998;SDS011;68071;45.062;7.356;2023-05-20T11:07:35;1.65;;;1.38;;
49998;SDS011;68071;45.062;7.356;2023-05-20T11:10:40;1.85;;;1.40;;
49998;SDS011;68071;45.062;7.356;2023-05-20T11:13:44;1.92;;;1.73;;
49998;SDS011;68071;45.062;7.356;2023-05-20T11:16:57;1.88;;;1.23;;
49998;SDS011;68071;45.062;7.356;2023-05-20T11:20:02;1.88;;;1.20;;
49998;SDS011;68071;45.062;7.356;2023-05-20T11:23:10;1.70;;;1.42;;
49998;SDS011;68071;45.062;7.356;2023-05-20T11:26:16;1.70;;;1.40;;
49998;SDS011;68071;45.062;7.356;2023-05-20T11:29:20;1.42;;;1.20;;
49998;SDS011;68071;45.062;7.356;2023-05-20T11:32:24;1.77;;;1.60;;
49998;SDS011;68071;45.062;7.356;2023-05-20T11:35:30;2.00;;;1.80;;
49998;SDS011;68071;45.062;7.356;2023-05-20T11:38:35;7.03;;;6.32;;
49998;SDS011;68071;45.062;7.356;2023-05-20T11:41:43;4.10;;;3.35;;
49998;SDS011;68071;45.062;7.356;2023-05-20T11:44:47;4.13;;;3.72;;
49998;SDS011;68071;45.062;7.356;2023-05-20T11:47:58;3.72;;;3.42;;
49998;SDS011;68071;45.062;7.356;2023-05-20T11:51:04;4.50;;;3.58;;
49998;SDS011;68071;45.062;7.356;2023-05-20T11:54:11;3.03;;;2.67;;
49998;SDS011;68071;45.062;7.356;2023-05-20T11:57:14;2.47;;;2.20;;
49998;SDS011;68071;45.062;7.356;2023-05-20T12:00:18;2.60;;;2.25;;
49998;SDS011;68071;45.062;7.356;2023-05-20T12:03:23;2.13;;;1.92;;
49998;SDS011;68071;45.062;7.356;2023-05-20T12:06:27;1.98;;;1.48;;
49998;SDS011;68071;45.062;7.356;2023-05-20T12:09:31;2.50;;;2.30;;
49998;SDS011;68071;45.062;7.356;2023-05-20T12:12:35;2.60;;;2.22;;
49998;SDS011;68071;45.062;7.356;2023-05-20T12:15:39;3.35;;;3.05;;
49998;SDS011;68071;45.062;7.356;2023-05-20T12:18:44;2.55;;;2.30;;
49998;SDS011;68071;45.062;7.356;2023-05-20T12:21:48;2.78;;;2.30;;
49998;SDS011;68071;45.062;7.356;2023-05-20T12:24:52;1.83;;;1.40;;
49998;SDS011;68071;45.062;7.356;2023-05-20T12:27:57;1.83;;;1.38;;
49998;SDS011;68071;45.062;7.356;2023-05-20T12:31:01;2.83;;;1.90;;
49998;SDS011;68071;45.062;7.356;2023-05-20T12:34:05;2.60;;;2.22;;
49998;SDS011;68071;45.062;7.356;2023-05-20T12:37:09;3.55;;;2.38;;
49998;SDS011;68071;45.062;7.356;2023-05-20T12:40:13;3.47;;;2.67;;
49998;SDS011;68071;45.062;7.356;2023-05-20T12:43:17;4.10;;;2.92;;
49998;SDS011;68071;45.062;7.356;2023-05-20T12:46:21;4.70;;;3.67;;
49998;SDS011;68071;45.062;7.356;2023-05-20T12:49:25;3.72;;;3.35;;
49998;SDS011;68071;45.062;7.356;2023-05-20T12:52:29;3.03;;;2.28;;
49998;SDS011;68071;45.062;7.356;2023-05-20T12:55:33;2.67;;;2.33;;
49998;SDS011;68071;45.062;7.356;2023-05-20T12:58:37;2.13;;;1.90;;
49998;SDS011;68071;45.062;7.356;2023-05-20T13:01:41;1.80;;;1.40;;
49998;SDS011;68071;45.062;7.356;2023-05-20T13:04:45;2.90;;;1.90;;
49998;SDS011;68071;45.062;7.356;2023-05-20T13:07:49;2.75;;;1.52;;
49998;SDS011;68071;45.062;7.356;2023-05-20T13:10:53;1.70;;;1.23;;
49998;SDS011;68071;45.062;7.356;2023-05-20T13:13:57;2.10;;;1.60;;
49998;SDS011;68071;45.062;7.356;2023-05-20T13:17:01;1.80;;;1.45;;
49998;SDS011;68071;45.062;7.356;2023-05-20T13:20:05;1.80;;;1.30;;
49998;SDS011;68071;45.062;7.356;2023-05-20T13:23:10;1.40;;;1.23;;
49998;SDS011;68071;45.062;7.356;2023-05-20T13:26:14;2.92;;;2.20;;
49998;SDS011;68071;45.062;7.356;2023-05-20T13:29:18;3.05;;;2.75;;
49998;SDS011;68071;45.062;7.356;2023-05-20T13:32:23;2.88;;;2.42;;
49998;SDS011;68071;45.062;7.356;2023-05-20T13:35:27;3.25;;;2.50;;
49998;SDS011;68071;45.062;7.356;2023-05-20T13:38:31;3.00;;;2.67;;
49998;SDS011;68071;45.062;7.356;2023-05-20T13:41:35;3.10;;;2.80;;
49998;SDS011;68071;45.062;7.356;2023-05-20T13:44:39;3.70;;;3.10;;
49998;SDS011;68071;45.062;7.356;2023-05-20T13:47:43;3.78;;;3.40;;
49998;SDS011;68071;45.062;7.356;2023-05-20T13:50:48;3.78;;;3.47;;
49998;SDS011;68071;45.062;7.356;2023-05-20T13:53:51;3.10;;;1.90;;
49998;SDS011;68071;45.062;7.356;2023-05-20T13:56:55;2.30;;;1.60;;
49998;SDS011;68071;45.062;7.356;2023-05-20T14:00:00;1.52;;;0.98;;
49998;SDS011;68071;45.062;7.356;2023-05-20T14:03:04;1.70;;;0.90;;
49998;SDS011;68071;45.062;7.356;2023-05-20T14:06:11;1.23;;;0.77;;
49998;SDS011;68071;45.062;7.356;2023-05-20T14:09:17;1.20;;;0.93;;
49998;SDS011;68071;45.062;7.356;2023-05-20T14:12:21;1.25;;;0.90;;
49998;SDS011;68071;45.062;7.356;2023-05-20T14:15:26;1.40;;;1.05;;
49998;SDS011;68071;45.062;7.356;2023-05-20T14:18:33;1.50;;;0.65;;
49998;SDS011;68071;45.062;7.356;2023-05-20T14:21:37;1.75;;;1.23;;
49998;SDS011;68071;45.062;7.356;2023-05-20T14:24:41;1.98;;;1.10;;
49998;SDS011;68071;45.062;7.356;2023-05-20T14:31:54;2.70;;;1.50;;
49998;SDS011;68071;45.062;7.356;2023-05-20T14:34:59;1.40;;;1.10;;
49998;SDS011;68071;45.062;7.356;2023-05-20T14:38:03;1.63;;;1.25;;
49998;SDS011;68071;45.062;7.356;2023-05-20T14:41:07;1.80;;;1.45;;
49998;SDS011;68071;45.062;7.356;2023-05-20T14:44:11;1.98;;;1.27;;
49998;SDS011;68071;45.062;7.356;2023-05-20T14:47:15;1.92;;;1.50;;
49998;SDS011;68071;45.062;7.356;2023-05-20T14:50:21;2.97;;;2.03;;
49998;SDS011;68071;45.062;7.356;2023-05-20T14:53:25;2.90;;;2.00;;
49998;SDS011;68071;45.062;7.356;2023-05-20T14:56:29;2.65;;;1.70;;
49998;SDS011;68071;45.062;7.356;2023-05-20T14:59:34;4.00;;;2.37;;
49998;SDS011;68071;45.062;7.356;2023-05-20T15:02:38;2.28;;;2.08;;
49998;SDS011;68071;45.062;7.356;2023-05-20T15:05:42;3.17;;;2.88;;
49998;SDS011;68071;45.062;7.356;2023-05-20T15:08:46;2.60;;;1.67;;
49998;SDS011;68071;45.062;7.356;2023-05-20T15:11:50;2.00;;;1.80;;
49998;SDS011;68071;45.062;7.356;2023-05-20T15:14:54;2.90;;;2.00;;
49998;SDS011;68071;45.062;7.356;2023-05-20T15:17:59;2.95;;;2.65;;
49998;SDS011;68071;45.062;7.356;2023-05-20T15:21:03;3.00;;;2.28;;
49998;SDS011;68071;45.062;7.356;2023-05-20T15:24:08;2.92;;;2.35;;
49998;SDS011;68071;45.062;7.356;2023-05-20T15:27:12;2.60;;;2.30;;
49998;SDS011;68071;45.062;7.356;2023-05-20T15:30:17;4.55;;;3.72;;
49998;SDS011;68071;45.062;7.356;2023-05-20T15:36:57;4.28;;;3.30;;
49998;SDS011;68071;45.062;7.356;2023-05-20T15:40:01;3.97;;;3.60;;
49998;SDS011;68071;45.062;7.356;2023-05-20T15:43:07;3.90;;;3.42;;
49998;SDS011;68071;45.062;7.356;2023-05-20T15:46:11;6.03;;;4.97;;
49998;SDS011;68071;45.062;7.356;2023-05-20T15:49:15;7.25;;;6.55;;
49998;SDS011;68071;45.062;7.356;2023-05-20T15:56:28;6.00;;;4.45;;
49998;SDS011;68071;45.062;7.356;2023-05-20T15:59:32;6.80;;;4.90;;
49998;SDS011;68071;45.062;7.356;2023-05-20T16:02:36;5.05;;;4.20;;
49998;SDS011;68071;45.062;7.356;2023-05-20T16:05:40;4.35;;;3.95;;
49998;SDS011;68071;45.062;7.356;2023-05-20T16:08:44;4.25;;;3.85;;
49998;SDS011;68071;45.062;7.356;2023-05-20T16:11:48;3.38;;;3.08;;
49998;SDS011;68071;45.062;7.356;2023-05-20T16:14:53;4.47;;;3.20;;
49998;SDS011;68071;45.062;7.356;2023-05-20T16:17:57;5.03;;;4.43;;
49998;SDS011;68071;45.062;7.356;2023-05-20T16:21:00;4.88;;;4.38;;
49998;SDS011;68071;45.062;7.356;2023-05-20T16:24:04;5.10;;;4.18;;
49998;SDS011;68071;45.062;7.356;2023-05-20T16:27:09;5.45;;;4.90;;
49998;SDS011;68071;45.062;7.356;2023-05-20T16:30:14;5.30;;;4.43;;
49998;SDS011;68071;45.062;7.356;2023-05-20T16:36:55;5.38;;;4.50;;
49998;SDS011;68071;45.062;7.356;2023-05-20T16:39:59;5.13;;;4.20;;
49998;SDS011;68071;45.062;7.356;2023-05-20T16:43:03;6.93;;;5.32;;
49998;SDS011;68071;45.062;7.356;2023-05-20T16:46:07;4.93;;;4.03;;
49998;SDS011;68071;45.062;7.356;2023-05-20T16:49:12;4.63;;;3.78;;
49998;SDS011;68071;45.062;7.356;2023-05-20T16:52:16;6.07;;;4.82;;
49998;SDS011;68071;45.062;7.356;2023-05-20T16:55:20;6.55;;;5.95;;
49998;SDS011;68071;45.062;7.356;2023-05-20T16:58:24;6.47;;;5.65;;
49998;SDS011;68071;45.062;7.356;2023-05-20T17:01:28;5.30;;;4.35;;
49998;SDS011;68071;45.062;7.356;2023-05-20T17:04:32;3.55;;;3.25;;
49998;SDS011;68071;45.062;7.356;2023-05-20T17:07:36;5.22;;;3.67;;
49998;SDS011;68071;45.062;7.356;2023-05-20T17:10:41;4.38;;;3.78;;
49998;SDS011;68071;45.062;7.356;2023-05-20T17:13:45;3.85;;;3.03;;
49998;SDS011;68071;45.062;7.356;2023-05-20T17:16:49;4.20;;;3.40;;
49998;SDS011;68071;45.062;7.356;2023-05-20T17:19:53;4.47;;;3.85;;
49998;SDS011;68071;45.062;7.356;2023-05-20T17:22:58;5.07;;;4.50;;
49998;SDS011;68071;45.062;7.356;2023-05-20T17:26:02;4.50;;;3.78;;
49998;SDS011;68071;45.062;7.356;2023-05-20T17:29:06;4.78;;;4.13;;
49998;SDS011;68071;45.062;7.356;2023-05-20T17:32:10;3.47;;;3.17;;
49998;SDS011;68071;45.062;7.356;2023-05-20T17:35:15;3.88;;;3.17;;
49998;SDS011;68071;45.062;7.356;2023-05-20T17:38:18;3.53;;;3.22;;
49998;SDS011;68071;45.062;7.356;2023-05-20T17:41:24;4.05;;;3.53;;
49998;SDS011;68071;45.062;7.356;2023-05-20T17:44:30;4.40;;;3.97;;
49998;SDS011;68071;45.062;7.356;2023-05-20T17:47:34;4.15;;;3.70;;
49998;SDS011;68071;45.062;7.356;2023-05-20T17:50:38;4.13;;;3.72;;
49998;SDS011;68071;45.062;7.356;2023-05-20T17:53:42;4.50;;;3.40;;
49998;SDS011;68071;45.062;7.356;2023-05-20T17:56:46;5.63;;;3.75;;
49998;SDS011;68071;45.062;7.356;2023-05-20T17:59:51;4.07;;;3.43;;
49998;SDS011;68071;45.062;7.356;2023-05-20T18:02:57;4.75;;;3.30;;
49998;SDS011;68071;45.062;7.356;2023-05-20T18:06:03;3.83;;;3.05;;
49998;SDS011;68071;45.062;7.356;2023-05-20T18:09:08;3.60;;;3.30;;
49998;SDS011;68071;45.062;7.356;2023-05-20T18:12:12;4.25;;;3.78;;
49998;SDS011;68071;45.062;7.356;2023-05-20T18:15:17;10.00;;;7.85;;
49998;SDS011;68071;45.062;7.356;2023-05-20T18:18:20;5.15;;;4.65;;
49998;SDS011;68071;45.062;7.356;2023-05-20T18:21:24;4.20;;;3.80;;
49998;SDS011;68071;45.062;7.356;2023-05-20T18:24:28;4.22;;;3.83;;
49998;SDS011;68071;45.062;7.356;2023-05-20T18:27:33;9.32;;;6.65;;
49998;SDS011;68071;45.062;7.356;2023-05-20T18:30:36;9.35;;;8.02;;
49998;SDS011;68071;45.062;7.356;2023-05-20T18:33:40;9.35;;;8.35;;
49998;SDS011;68071;45.062;7.356;2023-05-20T18:36:45;4.50;;;3.17;;
49998;SDS011;68071;45.062;7.356;2023-05-20T18:39:50;6.40;;;5.30;;
49998;SDS011;68071;45.062;7.356;2023-05-20T18:42:54;5.95;;;5.32;;
49998;SDS011;68071;45.062;7.356;2023-05-20T18:45:58;4.03;;;2.50;;
49998;SDS011;68071;45.062;7.356;2023-05-20T18:49:02;5.50;;;5.00;;
49998;SDS011;68071;45.062;7.356;2023-05-20T18:52:06;6.70;;;5.40;;
49998;SDS011;68071;45.062;7.356;2023-05-20T18:55:11;5.30;;;3.58;;
49998;SDS011;68071;45.062;7.356;2023-05-20T18:58:16;5.68;;;4.78;;
49998;SDS011;68071;45.062;7.356;2023-05-20T19:01:20;4.50;;;4.03;;
49998;SDS011;68071;45.062;7.356;2023-05-20T19:04:24;4.53;;;4.13;;